createdAt,value
2022-12-28T00:01:49.930Z,3.03
2022-12-28T00:04:16.523Z,3.23
2022-12-28T00:06:43.161Z,3.47
2022-12-28T00:09:12.649Z,3.50
2022-12-28T00:11:39.365Z,4.30
2022-12-28T00:14:06.108Z,3.63
2022-12-28T00:16:35.169Z,3.13
2022-12-28T00:19:04.854Z,3.77
2022-12-28T00:21:32.001Z,3.47
2022-12-28T00:24:00.924Z,3.10
2022-12-28T00:26:29.380Z,3.33
2022-12-28T00:29:03.599Z,3.20
2022-12-28T00:31:31.599Z,3.53
2022-12-28T00:33:58.217Z,3.03
2022-12-28T00:36:25.251Z,4.27
2022-12-28T00:39:11.872Z,3.20
2022-12-28T00:41:38.514Z,3.40
2022-12-28T00:44:08.004Z,3.50
2022-12-28T00:46:34.678Z,3.30
2022-12-28T00:49:01.287Z,3.60
2022-12-28T00:51:27.993Z,3.80
2022-12-28T00:53:54.650Z,3.80
2022-12-28T00:56:22.591Z,3.60
2022-12-28T00:58:50.029Z,3.73
2022-12-28T01:01:22.187Z,3.53
2022-12-28T01:03:50.633Z,3.40
2022-12-28T01:06:19.624Z,3.33
2022-12-28T01:08:46.809Z,3.97
2022-12-28T01:11:16.393Z,4.13
2022-12-28T01:13:42.974Z,3.90
2022-12-28T01:16:19.572Z,3.97
2022-12-28T01:18:48.407Z,4.10
2022-12-28T01:21:17.766Z,4.53
2022-12-28T01:23:45.570Z,4.20
2022-12-28T01:26:12.620Z,4.53
2022-12-28T01:28:39.450Z,4.63
2022-12-28T01:31:08.586Z,4.60
2022-12-28T01:33:35.445Z,5.10
2022-12-28T01:36:09.480Z,5.37
2022-12-28T01:38:37.492Z,5.13
2022-12-28T01:41:09.328Z,5.87
2022-12-28T01:43:42.255Z,5.20
2022-12-28T01:46:15.088Z,5.93
2022-12-28T01:48:50.541Z,6.30
2022-12-28T01:51:20.527Z,6.47
2022-12-28T01:53:51.658Z,6.77
2022-12-28T01:56:18.582Z,7.23
2022-12-28T01:58:45.837Z,7.10
2022-12-28T02:01:12.691Z,6.50
2022-12-28T02:03:39.421Z,7.10
2022-12-28T02:06:09.399Z,7.40
2022-12-28T02:09:01.148Z,7.67
2022-12-28T02:11:29.927Z,7.03
2022-12-28T02:13:58.427Z,7.10
2022-12-28T02:16:25.049Z,7.13
2022-12-28T02:18:52.052Z,7.43
2022-12-28T02:21:36.808Z,7.43
2022-12-28T02:24:48.359Z,7.10
2022-12-28T02:28:04.873Z,7.10
2022-12-28T02:30:38.252Z,7.07
2022-12-28T02:33:24.947Z,6.80
2022-12-28T02:36:01.407Z,7.27
2022-12-28T02:38:40.467Z,6.83
2022-12-28T02:41:12.744Z,6.83
2022-12-28T02:43:39.687Z,6.50
2022-12-28T02:46:37.418Z,6.33
2022-12-28T02:49:37.025Z,6.57
2022-12-28T02:52:25.317Z,6.80
2022-12-28T02:55:29.466Z,6.50
2022-12-28T02:58:26.519Z,6.13
2022-12-28T03:01:10.309Z,5.93
2022-12-28T03:03:41.682Z,5.53
2022-12-28T03:06:35.310Z,5.30
2022-12-28T03:09:21.212Z,5.30
2022-12-28T03:11:54.012Z,5.27
2022-12-28T03:14:28.861Z,5.23
2022-12-28T03:17:18.190Z,4.73
2022-12-28T03:20:08.562Z,4.57
2022-12-28T03:22:55.733Z,5.23
2022-12-28T03:25:46.847Z,4.80
2022-12-28T03:28:37.534Z,4.20
2022-12-28T03:31:10.274Z,4.27
2022-12-28T03:33:49.488Z,4.23
2022-12-28T03:36:30.486Z,4.03
2022-12-28T03:39:13.577Z,3.60
2022-12-28T03:42:19.809Z,3.60
2022-12-28T03:44:54.644Z,3.37
2022-12-28T03:47:23.774Z,3.13
2022-12-28T03:49:50.473Z,3.37
2022-12-28T03:52:17.276Z,3.37
2022-12-28T03:54:45.496Z,2.93
2022-12-28T03:57:17.007Z,2.43
2022-12-28T03:59:45.330Z,2.60
2022-12-28T04:02:12.486Z,3.23
2022-12-28T04:04:39.396Z,3.07
2022-12-28T04:07:05.983Z,2.73
2022-12-28T04:09:32.661Z,2.60
2022-12-28T04:11:59.796Z,3.00
2022-12-28T04:14:45.019Z,2.87
2022-12-28T04:17:12.189Z,2.40
2022-12-28T04:19:42.416Z,2.40
2022-12-28T04:22:09.001Z,2.73
2022-12-28T04:24:36.101Z,2.60
2022-12-28T04:27:02.720Z,2.40
2022-12-28T04:29:29.582Z,2.40
2022-12-28T04:32:16.409Z,2.40
2022-12-28T04:34:48.239Z,2.27
2022-12-28T04:37:17.969Z,2.40
2022-12-28T04:39:55.665Z,2.40
2022-12-28T04:42:25.735Z,2.50
2022-12-28T04:44:52.467Z,2.00
2022-12-28T04:47:19.174Z,1.90
2022-12-28T04:49:45.829Z,2.30
2022-12-28T04:52:12.745Z,2.10
2022-12-28T04:54:39.331Z,1.87
2022-12-28T04:57:06.878Z,1.93
2022-12-28T04:59:33.546Z,2.10
2022-12-28T05:02:00.229Z,2.10
2022-12-28T05:04:26.923Z,1.80
2022-12-28T05:06:53.532Z,1.70
2022-12-28T05:09:20.065Z,1.80
2022-12-28T05:11:46.630Z,1.63
2022-12-28T05:14:13.261Z,1.50
2022-12-28T05:16:39.886Z,1.60
2022-12-28T05:19:06.452Z,1.50
2022-12-28T05:21:33.089Z,1.90
2022-12-28T05:23:59.865Z,1.57
2022-12-28T05:26:29.240Z,1.53
2022-12-28T05:28:56.931Z,1.60
2022-12-28T05:31:24.262Z,1.70
2022-12-28T05:33:51.885Z,1.30
2022-12-28T05:36:23.601Z,1.40
2022-12-28T05:38:50.576Z,1.33
2022-12-28T05:41:22.503Z,1.57
2022-12-28T05:43:49.579Z,1.50
2022-12-28T05:46:22.044Z,1.50
2022-12-28T05:48:48.882Z,1.77
2022-12-28T05:51:18.675Z,1.40
2022-12-28T05:53:45.967Z,1.60
2022-12-28T05:56:20.110Z,1.33
2022-12-28T05:58:52.487Z,1.40
2022-12-28T06:01:21.307Z,1.40
2022-12-28T06:03:52.075Z,1.30
2022-12-28T06:06:19.710Z,1.30
2022-12-28T06:08:47.782Z,1.60
2022-12-28T06:11:20.704Z,1.60
2022-12-28T06:13:47.727Z,1.40
2022-12-28T06:16:18.808Z,1.50
2022-12-28T06:18:45.959Z,1.60
2022-12-28T06:21:24.771Z,1.93
2022-12-28T06:23:51.866Z,1.40
2022-12-28T06:26:21.207Z,1.30
2022-12-28T06:28:48.585Z,1.30
2022-12-28T06:31:16.654Z,1.40
2022-12-28T06:33:44.004Z,1.30
2022-12-28T06:36:19.434Z,1.50
2022-12-28T06:38:47.637Z,1.50
2022-12-28T06:41:15.387Z,1.50
2022-12-28T06:43:43.251Z,1.73
2022-12-28T06:46:11.281Z,1.80
2022-12-28T06:48:38.037Z,1.40
2022-12-28T06:51:26.102Z,1.60
2022-12-28T06:53:54.045Z,1.43
2022-12-28T06:56:28.994Z,1.70
2022-12-28T06:59:02.436Z,1.60
2022-12-28T07:01:33.293Z,1.97
2022-12-28T07:04:01.511Z,1.47
2022-12-28T07:06:29.263Z,1.63
2022-12-28T07:09:01.888Z,1.47
2022-12-28T07:11:29.155Z,2.07
2022-12-28T07:13:56.331Z,2.00
2022-12-28T07:16:24.415Z,1.90
2022-12-28T07:18:51.096Z,4.60
2022-12-28T07:21:29.523Z,2.87
2022-12-28T07:23:57.159Z,1.90
2022-12-28T07:26:26.606Z,2.10
2022-12-28T07:28:55.729Z,2.27
2022-12-28T07:31:39.787Z,1.70
2022-12-28T07:34:08.518Z,2.40
2022-12-28T07:36:35.190Z,1.67
2022-12-28T07:39:02.203Z,1.67
2022-12-28T07:41:32.778Z,1.67
2022-12-28T07:44:00.504Z,1.50
2022-12-28T07:46:29.841Z,2.03
2022-12-28T07:48:59.322Z,1.80
2022-12-28T07:51:27.370Z,1.70
2022-12-28T07:53:55.103Z,1.83
2022-12-28T07:56:23.195Z,1.90
2022-12-28T07:58:54.287Z,1.60
2022-12-28T08:01:23.096Z,1.33
2022-12-28T08:03:53.635Z,2.00
2022-12-28T08:06:23.105Z,1.70
2022-12-28T08:08:51.982Z,1.33
2022-12-28T08:11:21.980Z,1.40
2022-12-28T08:13:51.527Z,2.00
2022-12-28T08:16:20.312Z,1.50
2022-12-28T08:18:48.538Z,1.70
2022-12-28T08:21:18.374Z,1.80
2022-12-28T08:23:45.446Z,1.40
2022-12-28T08:26:21.148Z,1.47
2022-12-28T08:28:49.787Z,1.80
2022-12-28T08:31:38.071Z,1.93
2022-12-28T08:34:09.344Z,1.43
2022-12-28T08:36:35.976Z,1.70
2022-12-28T08:39:03.879Z,1.70
2022-12-28T08:41:31.104Z,1.40
2022-12-28T08:43:58.375Z,1.60
2022-12-28T08:46:28.021Z,1.97
2022-12-28T08:48:56.394Z,1.53
2022-12-28T08:51:43.407Z,1.40
2022-12-28T08:54:11.735Z,1.30
2022-12-28T08:56:40.077Z,1.40
2022-12-28T08:59:06.764Z,1.53
2022-12-28T09:01:43.815Z,1.30
2022-12-28T09:04:17.062Z,1.40
2022-12-28T09:06:43.960Z,1.50
2022-12-28T09:09:13.818Z,1.50
2022-12-28T09:11:40.990Z,1.70
2022-12-28T09:14:09.544Z,1.60
2022-12-28T09:16:37.302Z,1.33
2022-12-28T09:19:06.304Z,1.40
2022-12-28T09:21:38.760Z,1.50
2022-12-28T09:24:06.347Z,1.50
2022-12-28T09:26:36.531Z,1.80
2022-12-28T09:29:05.584Z,1.67
2022-12-28T09:31:33.451Z,1.47
2022-12-28T09:36:50.878Z,1.83
2022-12-28T09:39:19.943Z,1.30
2022-12-28T09:42:11.663Z,1.37
2022-12-28T09:44:45.691Z,1.87
2022-12-28T09:47:17.415Z,1.30
2022-12-28T09:50:04.546Z,1.30
2022-12-28T09:52:49.420Z,1.40
2022-12-28T09:55:18.430Z,1.17
2022-12-28T09:57:49.693Z,1.67
2022-12-28T10:00:19.387Z,1.37
2022-12-28T10:02:57.302Z,1.27
2022-12-28T10:05:24.216Z,1.20
2022-12-28T10:07:52.993Z,1.63
2022-12-28T10:10:23.389Z,1.40
2022-12-28T10:12:50.998Z,1.80
2022-12-28T10:15:17.871Z,1.57
2022-12-28T10:17:45.359Z,2.00
2022-12-28T10:20:17.542Z,1.70
2022-12-28T10:22:50.184Z,1.40
2022-12-28T10:25:20.596Z,1.23
2022-12-28T10:27:47.295Z,1.17
2022-12-28T10:30:18.788Z,1.43
2022-12-28T10:32:51.514Z,1.60
2022-12-28T10:35:41.507Z,1.60
2022-12-28T10:38:22.026Z,1.43
2022-12-28T10:40:58.452Z,1.97
2022-12-28T10:43:28.593Z,1.70
2022-12-28T10:45:57.673Z,1.70
2022-12-28T10:48:39.167Z,1.50
2022-12-28T10:51:13.735Z,1.33
2022-12-28T10:53:40.267Z,1.60
2022-12-28T10:56:13.396Z,1.40
2022-12-28T10:58:41.894Z,1.50
2022-12-28T11:01:14.573Z,1.33
2022-12-28T11:03:46.771Z,1.10
2022-12-28T11:06:26.679Z,1.43
2022-12-28T11:09:10.837Z,1.53
2022-12-28T11:11:37.381Z,1.50
2022-12-28T11:14:26.402Z,1.50
2022-12-28T11:16:53.395Z,1.80
2022-12-28T11:19:20.899Z,1.23
2022-12-28T11:21:49.049Z,1.07
2022-12-28T11:24:17.646Z,1.57
2022-12-28T11:26:48.078Z,1.27
2022-12-28T11:29:18.076Z,1.40
2022-12-28T11:31:53.280Z,1.30
2022-12-28T11:34:25.536Z,1.30
2022-12-28T11:36:52.289Z,1.20
2022-12-28T11:39:27.711Z,1.37
2022-12-28T11:42:36.663Z,1.37
2022-12-28T11:44:42.613Z,2.10
2022-12-28T11:47:18.222Z,2.00
2022-12-28T11:49:46.383Z,1.17
2022-12-28T11:52:24.078Z,1.40
2022-12-28T11:54:56.585Z,1.60
2022-12-28T11:57:39.425Z,1.13
2022-12-28T12:00:37.809Z,1.20
2022-12-28T12:03:04.514Z,1.00
2022-12-28T12:05:40.088Z,1.40
2022-12-28T12:08:12.546Z,1.30
2022-12-28T12:10:41.707Z,1.43
2022-12-28T12:13:26.428Z,1.30
2022-12-28T12:16:00.041Z,1.30
2022-12-28T12:18:29.975Z,1.33
2022-12-28T12:21:06.780Z,1.07
2022-12-28T12:23:42.984Z,1.03
2022-12-28T12:26:35.443Z,1.27
2022-12-28T12:29:14.267Z,1.10
2022-12-28T12:31:49.930Z,1.20
2022-12-28T12:34:27.459Z,1.40
2022-12-28T12:37:31.200Z,1.10
2022-12-28T12:40:18.146Z,1.20
2022-12-28T12:42:47.400Z,1.37
2022-12-28T12:45:19.998Z,1.40
2022-12-28T12:47:46.520Z,1.43
2022-12-28T12:50:15.975Z,1.50
2022-12-28T12:53:19.955Z,1.23
2022-12-28T12:56:13.767Z,1.40
2022-12-28T12:59:17.592Z,1.23
2022-12-28T13:01:57.391Z,1.20
2022-12-28T13:04:31.889Z,1.33
2022-12-28T13:07:03.020Z,1.10
2022-12-28T13:09:33.008Z,1.50
2022-12-28T13:12:01.737Z,1.20
2022-12-28T13:14:28.516Z,1.20
2022-12-28T13:16:58.380Z,1.70
2022-12-28T13:19:27.436Z,1.57
2022-12-28T13:21:55.237Z,1.80
2022-12-28T13:24:25.953Z,1.40
2022-12-28T13:26:54.070Z,1.57
2022-12-28T13:29:23.951Z,1.17
2022-12-28T13:31:51.617Z,1.47
2022-12-28T13:34:30.115Z,1.33
2022-12-28T13:36:59.703Z,1.60
2022-12-28T13:39:28.485Z,1.73
2022-12-28T13:42:19.906Z,1.53
2022-12-28T13:44:55.088Z,1.80
2022-12-28T13:47:28.480Z,1.37
2022-12-28T13:50:03.349Z,2.07
2022-12-28T13:52:44.591Z,1.60
2022-12-28T13:55:18.106Z,1.80
2022-12-28T13:57:54.217Z,1.60
2022-12-28T14:00:24.328Z,1.90
2022-12-28T14:02:53.936Z,1.50
2022-12-28T14:05:26.203Z,1.70
2022-12-28T14:07:55.128Z,1.80
2022-12-28T14:10:22.407Z,1.70
2022-12-28T14:12:50.176Z,1.80
2022-12-28T14:15:18.262Z,1.33
2022-12-28T14:17:47.537Z,1.80
2022-12-28T14:20:14.229Z,1.70
2022-12-28T14:22:41.881Z,1.87
2022-12-28T14:25:11.299Z,1.70
2022-12-28T14:27:56.996Z,1.90
2022-12-28T14:30:36.805Z,1.60
2022-12-28T14:33:24.791Z,2.07
2022-12-28T14:35:57.025Z,2.20
2022-12-28T14:38:28.605Z,1.90
2022-12-28T14:40:57.408Z,1.87
2022-12-28T14:43:35.708Z,1.70
2022-12-28T14:46:38.981Z,1.60
2022-12-28T14:49:31.269Z,2.13
2022-12-28T14:52:17.868Z,1.97
2022-12-28T14:54:52.419Z,2.50
2022-12-28T14:57:27.047Z,1.80
2022-12-28T15:00:05.366Z,1.50
2022-12-28T15:02:34.864Z,1.60
2022-12-28T15:05:03.369Z,1.80
2022-12-28T15:07:33.045Z,1.57
2022-12-28T15:10:00.330Z,1.50
2022-12-28T15:12:26.993Z,1.50
2022-12-28T15:14:53.554Z,1.77
2022-12-28T15:17:20.165Z,1.50
2022-12-28T15:19:46.884Z,1.20
2022-12-28T15:22:13.776Z,1.70
2022-12-28T15:24:45.019Z,1.70
2022-12-28T15:27:11.689Z,2.07
2022-12-28T15:32:24.895Z,1.90
2022-12-28T15:34:51.480Z,1.57
2022-12-28T15:37:18.293Z,1.43
2022-12-28T15:39:44.877Z,1.60
2022-12-28T15:42:11.433Z,1.30
2022-12-28T15:44:38.011Z,2.03
2022-12-28T15:47:04.756Z,2.20
2022-12-28T15:49:31.356Z,2.80
2022-12-28T15:51:57.965Z,1.50
2022-12-28T15:54:24.524Z,1.60
2022-12-28T15:56:53.043Z,1.47
2022-12-28T15:59:19.683Z,1.97
2022-12-28T16:01:47.304Z,1.53
2022-12-28T16:04:14.472Z,1.90
2022-12-28T16:06:44.596Z,2.17
2022-12-28T16:09:13.245Z,1.80
2022-12-28T16:11:40.900Z,3.00
2022-12-28T16:14:08.939Z,3.90
2022-12-28T16:16:39.041Z,1.50
2022-12-28T16:19:07.124Z,1.97
2022-12-28T16:21:33.839Z,1.97
2022-12-28T16:24:01.026Z,2.10
2022-12-28T16:26:28.315Z,1.80
2022-12-28T16:28:55.045Z,1.40
2022-12-28T16:31:23.544Z,1.90
2022-12-28T16:33:58.488Z,1.60
2022-12-28T16:36:25.293Z,1.60
2022-12-28T16:38:52.135Z,1.70
2022-12-28T16:41:19.245Z,1.60
2022-12-28T16:43:46.909Z,1.50
2022-12-28T16:46:14.107Z,1.50
2022-12-28T16:48:41.006Z,1.60
2022-12-28T16:51:08.041Z,2.30
2022-12-28T16:53:36.442Z,2.70
2022-12-28T16:56:05.155Z,2.80
2022-12-28T16:58:32.953Z,2.60
2022-12-28T17:01:06.113Z,2.10
2022-12-28T17:03:32.828Z,2.20
2022-12-28T17:05:59.521Z,1.97
2022-12-28T17:08:26.333Z,1.60
2022-12-28T17:10:52.952Z,1.80
2022-12-28T17:13:19.575Z,2.27
2022-12-28T17:15:46.119Z,1.63
2022-12-28T17:18:13.552Z,2.10
2022-12-28T17:20:40.556Z,3.10
2022-12-28T17:23:08.394Z,1.90
2022-12-28T17:25:36.048Z,2.20
2022-12-28T17:28:03.401Z,2.30
2022-12-28T17:30:30.208Z,2.07
2022-12-28T17:32:57.186Z,2.10
2022-12-28T17:35:24.144Z,2.00
2022-12-28T17:37:50.999Z,2.60
2022-12-28T17:40:17.829Z,2.70
2022-12-28T17:42:44.534Z,3.10
2022-12-28T17:45:12.164Z,3.00
2022-12-28T17:47:39.611Z,2.90
2022-12-28T17:50:07.204Z,2.90
2022-12-28T17:52:33.787Z,3.07
2022-12-28T17:55:00.436Z,2.77
2022-12-28T17:57:27.092Z,2.57
2022-12-28T17:59:53.902Z,2.90
2022-12-28T18:02:20.637Z,3.47
2022-12-28T18:04:48.167Z,2.63
2022-12-28T18:07:14.836Z,3.40
2022-12-28T18:09:41.580Z,3.60
2022-12-28T18:12:08.142Z,3.67
2022-12-28T18:14:35.075Z,4.57
2022-12-28T18:17:01.799Z,2.77
2022-12-28T18:19:28.446Z,4.40
2022-12-28T18:21:55.047Z,3.10
2022-12-28T18:24:22.030Z,3.23
2022-12-28T18:26:48.723Z,3.13
2022-12-28T18:29:15.363Z,3.90
2022-12-28T18:31:41.981Z,3.77
2022-12-28T18:34:08.659Z,3.07
2022-12-28T18:36:35.213Z,3.43
2022-12-28T18:39:03.058Z,3.00
2022-12-28T18:41:33.956Z,3.07
2022-12-28T18:44:02.929Z,2.60
2022-12-28T18:46:29.841Z,3.30
2022-12-28T18:48:56.747Z,3.33
2022-12-28T18:51:23.531Z,3.00
2022-12-28T18:53:50.968Z,3.00
2022-12-28T18:56:20.519Z,2.73
2022-12-28T18:58:55.606Z,2.90
2022-12-28T19:04:12.448Z,2.87
2022-12-28T19:06:39.539Z,2.60
2022-12-28T19:09:07.490Z,2.90
2022-12-28T19:11:35.360Z,2.67
2022-12-28T19:14:07.129Z,2.60
2022-12-28T19:16:34.139Z,2.87
2022-12-28T19:19:00.944Z,3.50
2022-12-28T19:21:31.376Z,2.87
2022-12-28T19:24:03.197Z,2.70
2022-12-28T19:26:31.393Z,2.83
2022-12-28T19:28:58.480Z,3.00
2022-12-28T19:31:25.555Z,2.83
2022-12-28T19:33:52.238Z,2.80
2022-12-28T19:36:18.823Z,2.80
2022-12-28T19:38:45.685Z,2.93
2022-12-28T19:41:14.011Z,3.37
2022-12-28T19:43:40.647Z,3.13
2022-12-28T19:46:13.751Z,3.07
2022-12-28T19:48:40.667Z,2.90
2022-12-28T19:51:07.589Z,2.90
2022-12-28T19:53:34.269Z,2.50
2022-12-28T19:56:06.980Z,3.00
2022-12-28T19:58:35.555Z,2.30
2022-12-28T20:01:09.836Z,2.67
2022-12-28T20:03:37.037Z,2.60
2022-12-28T20:06:08.093Z,1.87
2022-12-28T20:08:34.861Z,2.37
2022-12-28T20:11:03.322Z,2.37
2022-12-28T20:13:33.834Z,2.10
2022-12-28T20:16:00.535Z,2.30
2022-12-28T20:18:27.171Z,2.00
2022-12-28T20:21:18.536Z,2.43
2022-12-28T20:23:40.362Z,2.43
2022-12-28T20:26:06.987Z,2.13
2022-12-28T20:28:34.515Z,2.40
2022-12-28T20:31:12.519Z,2.43
2022-12-28T20:33:40.072Z,2.50
2022-12-28T20:36:10.396Z,2.40
2022-12-28T20:38:37.455Z,2.77
2022-12-28T20:41:35.435Z,2.43
2022-12-28T20:44:05.421Z,2.57
2022-12-28T20:46:32.872Z,2.30
2022-12-28T20:48:59.712Z,2.20
2022-12-28T20:51:27.559Z,2.10
2022-12-28T20:53:54.600Z,2.10
2022-12-28T20:56:22.616Z,1.77
2022-12-28T20:58:49.254Z,1.80
2022-12-28T21:01:17.070Z,1.73
2022-12-28T21:03:44.658Z,2.00
2022-12-28T21:06:11.855Z,2.10
2022-12-28T21:08:38.564Z,2.10
2022-12-28T21:11:05.400Z,2.07
2022-12-28T21:13:32.014Z,2.30
2022-12-28T21:15:58.961Z,2.20
2022-12-28T21:18:25.588Z,4.77
2022-12-28T21:20:55.510Z,7.87
2022-12-28T21:23:22.299Z,2.50
2022-12-28T21:25:49.185Z,2.20
2022-12-28T21:28:15.828Z,3.17
2022-12-28T21:30:42.443Z,3.43
2022-12-28T21:33:09.126Z,2.80
2022-12-28T21:35:35.704Z,2.93
2022-12-28T21:38:04.118Z,2.50
2022-12-28T21:40:30.679Z,3.10
2022-12-28T21:42:57.245Z,2.27
2022-12-28T21:45:23.902Z,2.50
2022-12-28T21:47:50.541Z,1.57
2022-12-28T21:50:17.228Z,1.80
2022-12-28T21:52:43.815Z,1.97
2022-12-28T21:55:29.148Z,1.97
2022-12-28T21:57:55.683Z,1.77
2022-12-28T22:00:40.750Z,2.03
2022-12-28T22:03:26.235Z,1.90
2022-12-28T22:06:04.923Z,1.88
2022-12-28T22:08:51.349Z,1.90
2022-12-28T22:11:37.001Z,1.83
2022-12-28T22:14:04.713Z,2.00
2022-12-28T22:16:32.935Z,1.83
2022-12-28T22:19:02.714Z,1.80
2022-12-28T22:21:29.869Z,1.90
2022-12-28T22:23:56.473Z,1.73
2022-12-28T22:26:23.256Z,1.70
2022-12-28T22:28:49.875Z,1.70
2022-12-28T22:31:16.571Z,2.03
2022-12-28T22:33:43.404Z,1.73
2022-12-28T22:36:16.049Z,1.50
2022-12-28T22:38:42.817Z,1.60
2022-12-28T22:41:09.923Z,1.40
2022-12-28T22:43:36.713Z,1.50
2022-12-28T22:46:11.861Z,1.40
2022-12-28T22:48:38.555Z,1.50
2022-12-28T22:51:10.471Z,1.50
2022-12-28T22:53:37.881Z,1.63
2022-12-28T22:56:08.118Z,1.60
2022-12-28T22:58:34.706Z,1.60
2022-12-28T23:01:10.515Z,1.70
2022-12-28T23:03:38.716Z,1.52
2022-12-28T23:06:06.574Z,1.45
2022-12-28T23:08:33.854Z,1.80
2022-12-28T23:11:02.934Z,1.70
2022-12-28T23:13:31.870Z,1.83
2022-12-28T23:16:01.222Z,1.75
2022-12-28T23:18:47.028Z,1.60
2022-12-28T23:21:40.952Z,1.60
2022-12-28T23:24:30.807Z,1.75
2022-12-28T23:27:17.606Z,1.50
2022-12-28T23:29:45.465Z,1.60
2022-12-28T23:32:12.472Z,1.75
2022-12-28T23:34:39.039Z,1.85
2022-12-28T23:37:05.665Z,1.77
2022-12-28T23:39:32.287Z,1.80
2022-12-28T23:41:58.891Z,1.98
2022-12-28T23:44:26.564Z,1.83
2022-12-28T23:46:58.950Z,1.90
2022-12-28T23:49:27.520Z,1.80
2022-12-28T23:51:54.823Z,1.70
2022-12-28T23:54:22.195Z,1.88
2022-12-28T23:56:49.123Z,1.77
2022-12-28T23:59:15.798Z,2.07
